sensor_id;sensor_type;location;lat;lon;timestamp;temperature;humidity
7216;DHT22;3649;48.798;9.798;2022-09-12T00:00:13;18.10;99.90
7216;DHT22;3649;48.798;9.798;2022-09-12T00:02:41;18.20;99.90
7216;DHT22;3649;48.798;9.798;2022-09-12T00:05:08;18.10;99.90
7216;DHT22;3649;48.798;9.798;2022-09-12T00:07:34;18.00;99.90
7216;DHT22;3649;48.798;9.798;2022-09-12T00:10:02;17.90;99.90
7216;DHT22;3649;48.798;9.798;2022-09-12T00:12:29;17.90;99.90
7216;DHT22;3649;48.798;9.798;2022-09-12T00:14:56;17.90;99.90
7216;DHT22;3649;48.798;9.798;2022-09-12T00:17:22;17.90;99.90
7216;DHT22;3649;48.798;9.798;2022-09-12T00:19:49;18.00;99.90
7216;DHT22;3649;48.798;9.798;2022-09-12T00:22:16;18.00;99.90
7216;DHT22;3649;48.798;9.798;2022-09-12T00:24:43;18.00;99.90
7216;DHT22;3649;48.798;9.798;2022-09-12T00:27:09;17.90;99.90
7216;DHT22;3649;48.798;9.798;2022-09-12T00:29:36;17.90;99.90
7216;DHT22;3649;48.798;9.798;2022-09-12T00:32:03;17.90;99.90
7216;DHT22;3649;48.798;9.798;2022-09-12T00:34:30;17.90;99.90
7216;DHT22;3649;48.798;9.798;2022-09-12T00:36:57;17.80;99.90
7216;DHT22;3649;48.798;9.798;2022-09-12T00:39:24;17.80;99.90
7216;DHT22;3649;48.798;9.798;2022-09-12T00:41:51;17.80;99.90
7216;DHT22;3649;48.798;9.798;2022-09-12T00:49:28;17.70;99.90
7216;DHT22;3649;48.798;9.798;2022-09-12T00:54:57;17.60;99.90
7216;DHT22;3649;48.798;9.798;2022-09-12T00:57:31;17.50;99.90
7216;DHT22;3649;48.798;9.798;2022-09-12T01:00:10;17.50;99.90
7216;DHT22;3649;48.798;9.798;2022-09-12T01:02:44;17.50;99.90
7216;DHT22;3649;48.798;9.798;2022-09-12T01:05:12;17.50;99.90
7216;DHT22;3649;48.798;9.798;2022-09-12T01:07:39;17.60;99.90
7216;DHT22;3649;48.798;9.798;2022-09-12T01:10:08;17.60;99.90
7216;DHT22;3649;48.798;9.798;2022-09-12T01:12:38;17.60;99.90
7216;DHT22;3649;48.798;9.798;2022-09-12T01:15:07;17.60;99.90
7216;DHT22;3649;48.798;9.798;2022-09-12T01:29:31;17.40;99.90
7216;DHT22;3649;48.798;9.798;2022-09-12T01:34:57;17.40;99.90
7216;DHT22;3649;48.798;9.798;2022-09-12T01:40:30;17.30;99.90
7216;DHT22;3649;48.798;9.798;2022-09-12T01:43:07;17.30;99.90
7216;DHT22;3649;48.798;9.798;2022-09-12T01:45:39;17.30;99.90
7216;DHT22;3649;48.798;9.798;2022-09-12T01:48:16;17.20;99.90
7216;DHT22;3649;48.798;9.798;2022-09-12T01:50:51;17.20;99.90
7216;DHT22;3649;48.798;9.798;2022-09-12T01:53:23;17.20;99.90
7216;DHT22;3649;48.798;9.798;2022-09-12T01:56:18;17.10;99.90
7216;DHT22;3649;48.798;9.798;2022-09-12T02:01:22;17.10;99.90
7216;DHT22;3649;48.798;9.798;2022-09-12T02:03:59;17.10;99.90
7216;DHT22;3649;48.798;9.798;2022-09-12T02:06:37;17.10;99.90
7216;DHT22;3649;48.798;9.798;2022-09-12T02:09:17;17.10;99.90
7216;DHT22;3649;48.798;9.798;2022-09-12T02:11:45;17.10;99.90
7216;DHT22;3649;48.798;9.798;2022-09-12T02:14:23;17.20;99.90
7216;DHT22;3649;48.798;9.798;2022-09-12T02:16:59;17.10;99.90
7216;DHT22;3649;48.798;9.798;2022-09-12T02:19:33;17.10;99.90
7216;DHT22;3649;48.798;9.798;2022-09-12T02:22:02;17.10;99.90
7216;DHT22;3649;48.798;9.798;2022-09-12T02:24:37;17.10;99.90
7216;DHT22;3649;48.798;9.798;2022-09-12T02:27:15;17.10;99.90
7216;DHT22;3649;48.798;9.798;2022-09-12T02:29:45;17.00;99.90
7216;DHT22;3649;48.798;9.798;2022-09-12T02:32:36;16.90;99.90
7216;DHT22;3649;48.798;9.798;2022-09-12T02:35:20;16.90;99.90
7216;DHT22;3649;48.798;9.798;2022-09-12T02:40:29;16.90;99.90
7216;DHT22;3649;48.798;9.798;2022-09-12T02:42:56;16.80;99.90
7216;DHT22;3649;48.798;9.798;2022-09-12T02:45:23;16.80;99.90
7216;DHT22;3649;48.798;9.798;2022-09-12T02:48:17;16.80;99.90
7216;DHT22;3649;48.798;9.798;2022-09-12T02:50:46;16.80;99.90
7216;DHT22;3649;48.798;9.798;2022-09-12T02:53:13;16.80;99.90
7216;DHT22;3649;48.798;9.798;2022-09-12T02:55:41;16.90;99.90
7216;DHT22;3649;48.798;9.798;2022-09-12T02:58:12;16.80;99.90
7216;DHT22;3649;48.798;9.798;2022-09-12T03:03:51;16.80;99.90
7216;DHT22;3649;48.798;9.798;2022-09-12T03:06:34;16.80;99.90
7216;DHT22;3649;48.798;9.798;2022-09-12T03:09:19;16.70;99.90
7216;DHT22;3649;48.798;9.798;2022-09-12T03:12:09;16.80;99.90
7216;DHT22;3649;48.798;9.798;2022-09-12T03:15:02;16.80;99.90
7216;DHT22;3649;48.798;9.798;2022-09-12T03:20:41;16.70;99.90
7216;DHT22;3649;48.798;9.798;2022-09-12T03:26:00;16.60;99.90
7216;DHT22;3649;48.798;9.798;2022-09-12T03:28:28;16.60;99.90
7216;DHT22;3649;48.798;9.798;2022-09-12T03:30:55;16.50;99.90
7216;DHT22;3649;48.798;9.798;2022-09-12T03:33:24;16.50;99.90
7216;DHT22;3649;48.798;9.798;2022-09-12T03:35:52;16.50;99.90
7216;DHT22;3649;48.798;9.798;2022-09-12T03:38:19;16.40;99.90
7216;DHT22;3649;48.798;9.798;2022-09-12T03:40:45;16.40;99.90
7216;DHT22;3649;48.798;9.798;2022-09-12T03:43:18;16.40;99.90
7216;DHT22;3649;48.798;9.798;2022-09-12T03:45:49;16.40;99.90
7216;DHT22;3649;48.798;9.798;2022-09-12T03:48:17;16.50;99.90
7216;DHT22;3649;48.798;9.798;2022-09-12T03:50:44;16.50;99.90
7216;DHT22;3649;48.798;9.798;2022-09-12T03:53:11;16.50;99.90
7216;DHT22;3649;48.798;9.798;2022-09-12T03:55:42;16.50;99.90
7216;DHT22;3649;48.798;9.798;2022-09-12T03:58:09;16.50;99.90
7216;DHT22;3649;48.798;9.798;2022-09-12T04:00:37;16.60;99.90
7216;DHT22;3649;48.798;9.798;2022-09-12T04:03:04;16.60;99.90
7216;DHT22;3649;48.798;9.798;2022-09-12T04:05:31;16.50;99.90
7216;DHT22;3649;48.798;9.798;2022-09-12T04:07:58;16.40;99.90
7216;DHT22;3649;48.798;9.798;2022-09-12T04:10:24;16.40;99.90
7216;DHT22;3649;48.798;9.798;2022-09-12T04:12:51;16.40;99.90
7216;DHT22;3649;48.798;9.798;2022-09-12T04:15:18;16.40;99.90
7216;DHT22;3649;48.798;9.798;2022-09-12T04:17:45;16.40;99.90
7216;DHT22;3649;48.798;9.798;2022-09-12T04:20:12;16.40;99.90
7216;DHT22;3649;48.798;9.798;2022-09-12T04:22:38;16.40;99.90
7216;DHT22;3649;48.798;9.798;2022-09-12T04:25:06;16.40;99.90
7216;DHT22;3649;48.798;9.798;2022-09-12T04:27:33;16.40;99.90
7216;DHT22;3649;48.798;9.798;2022-09-12T04:30:00;16.40;99.90
7216;DHT22;3649;48.798;9.798;2022-09-12T04:32:29;16.30;99.90
7216;DHT22;3649;48.798;9.798;2022-09-12T04:34:56;16.40;99.90
7216;DHT22;3649;48.798;9.798;2022-09-12T04:37:23;16.30;99.90
7216;DHT22;3649;48.798;9.798;2022-09-12T04:39:50;16.30;99.90
7216;DHT22;3649;48.798;9.798;2022-09-12T04:42:21;16.30;99.90
7216;DHT22;3649;48.798;9.798;2022-09-12T04:44:48;16.30;99.90
7216;DHT22;3649;48.798;9.798;2022-09-12T04:47:15;16.30;99.90
7216;DHT22;3649;48.798;9.798;2022-09-12T04:49:42;16.20;99.90
7216;DHT22;3649;48.798;9.798;2022-09-12T04:52:09;16.20;99.90
7216;DHT22;3649;48.798;9.798;2022-09-12T04:54:36;16.20;99.90
7216;DHT22;3649;48.798;9.798;2022-09-12T04:57:03;16.10;99.90
7216;DHT22;3649;48.798;9.798;2022-09-12T04:59:30;16.10;99.90
7216;DHT22;3649;48.798;9.798;2022-09-12T05:01:57;16.00;99.90
7216;DHT22;3649;48.798;9.798;2022-09-12T05:04:24;16.10;99.90
7216;DHT22;3649;48.798;9.798;2022-09-12T05:06:51;16.10;99.90
7216;DHT22;3649;48.798;9.798;2022-09-12T05:09:17;16.10;99.90
7216;DHT22;3649;48.798;9.798;2022-09-12T05:11:44;16.10;99.90
7216;DHT22;3649;48.798;9.798;2022-09-12T05:14:30;16.10;99.90
7216;DHT22;3649;48.798;9.798;2022-09-12T05:16:58;16.10;99.90
7216;DHT22;3649;48.798;9.798;2022-09-12T05:19:28;16.10;99.90
7216;DHT22;3649;48.798;9.798;2022-09-12T05:21:55;16.10;99.90
7216;DHT22;3649;48.798;9.798;2022-09-12T05:24:22;16.10;99.90
7216;DHT22;3649;48.798;9.798;2022-09-12T05:26:50;16.10;99.90
7216;DHT22;3649;48.798;9.798;2022-09-12T05:29:17;16.10;99.90
7216;DHT22;3649;48.798;9.798;2022-09-12T05:31:44;16.10;99.90
7216;DHT22;3649;48.798;9.798;2022-09-12T05:34:11;16.10;99.90
7216;DHT22;3649;48.798;9.798;2022-09-12T05:36:38;16.00;99.90
7216;DHT22;3649;48.798;9.798;2022-09-12T05:39:05;16.00;99.90
7216;DHT22;3649;48.798;9.798;2022-09-12T05:41:32;15.90;99.90
7216;DHT22;3649;48.798;9.798;2022-09-12T05:44:02;15.90;99.90
7216;DHT22;3649;48.798;9.798;2022-09-12T05:46:34;16.00;99.90
7216;DHT22;3649;48.798;9.798;2022-09-12T05:49:07;16.10;99.90
7216;DHT22;3649;48.798;9.798;2022-09-12T05:51:36;16.10;99.90
7216;DHT22;3649;48.798;9.798;2022-09-12T05:54:05;16.20;99.90
7216;DHT22;3649;48.798;9.798;2022-09-12T05:56:35;16.20;99.90
7216;DHT22;3649;48.798;9.798;2022-09-12T05:59:07;16.20;99.90
7216;DHT22;3649;48.798;9.798;2022-09-12T06:01:36;16.20;99.90
7216;DHT22;3649;48.798;9.798;2022-09-12T06:04:05;16.20;99.90
7216;DHT22;3649;48.798;9.798;2022-09-12T06:06:36;17.70;99.90
7216;DHT22;3649;48.798;9.798;2022-09-12T06:09:03;16.30;99.90
7216;DHT22;3649;48.798;9.798;2022-09-12T06:11:34;16.30;99.90
7216;DHT22;3649;48.798;9.798;2022-09-12T06:14:01;16.30;99.90
7216;DHT22;3649;48.798;9.798;2022-09-12T06:16:30;16.30;99.90
7216;DHT22;3649;48.798;9.798;2022-09-12T06:19:00;16.30;99.90
7216;DHT22;3649;48.798;9.798;2022-09-12T06:21:27;16.20;99.90
7216;DHT22;3649;48.798;9.798;2022-09-12T06:23:57;16.40;99.90
7216;DHT22;3649;48.798;9.798;2022-09-12T06:26:24;16.30;99.90
7216;DHT22;3649;48.798;9.798;2022-09-12T06:28:52;16.40;99.90
7216;DHT22;3649;48.798;9.798;2022-09-12T06:31:22;16.40;99.90
7216;DHT22;3649;48.798;9.798;2022-09-12T06:33:50;16.40;99.90
7216;DHT22;3649;48.798;9.798;2022-09-12T06:36:23;16.50;99.90
7216;DHT22;3649;48.798;9.798;2022-09-12T06:41:24;16.60;99.90
7216;DHT22;3649;48.798;9.798;2022-09-12T06:43:51;16.70;99.90
7216;DHT22;3649;48.798;9.798;2022-09-12T06:46:19;16.70;99.90
7216;DHT22;3649;48.798;9.798;2022-09-12T06:48:46;16.80;99.90
7216;DHT22;3649;48.798;9.798;2022-09-12T06:51:15;16.90;99.90
7216;DHT22;3649;48.798;9.798;2022-09-12T06:53:44;16.90;99.90
7216;DHT22;3649;48.798;9.798;2022-09-12T06:56:19;17.20;99.90
7216;DHT22;3649;48.798;9.798;2022-09-12T06:58:48;16.90;99.90
7216;DHT22;3649;48.798;9.798;2022-09-12T07:01:20;17.10;99.90
7216;DHT22;3649;48.798;9.798;2022-09-12T07:03:55;17.20;99.90
7216;DHT22;3649;48.798;9.798;2022-09-12T07:06:26;17.20;99.90
7216;DHT22;3649;48.798;9.798;2022-09-12T07:08:58;17.20;99.90
7216;DHT22;3649;48.798;9.798;2022-09-12T07:11:31;17.30;99.90
7216;DHT22;3649;48.798;9.798;2022-09-12T07:14:00;17.40;99.90
7216;DHT22;3649;48.798;9.798;2022-09-12T07:16:28;17.60;99.90
7216;DHT22;3649;48.798;9.798;2022-09-12T07:19:00;17.70;99.90
7216;DHT22;3649;48.798;9.798;2022-09-12T07:21:28;17.80;99.90
7216;DHT22;3649;48.798;9.798;2022-09-12T07:23:55;17.90;99.90
7216;DHT22;3649;48.798;9.798;2022-09-12T07:26:27;18.10;99.90
7216;DHT22;3649;48.798;9.798;2022-09-12T07:28:56;18.30;99.90
7216;DHT22;3649;48.798;9.798;2022-09-12T07:31:43;18.50;99.90
7216;DHT22;3649;48.798;9.798;2022-09-12T07:34:10;18.70;99.90
7216;DHT22;3649;48.798;9.798;2022-09-12T07:36:37;19.00;99.90
7216;DHT22;3649;48.798;9.798;2022-09-12T07:39:04;19.10;99.90
7216;DHT22;3649;48.798;9.798;2022-09-12T07:41:32;19.30;99.90
7216;DHT22;3649;48.798;9.798;2022-09-12T07:44:05;19.60;99.90
7216;DHT22;3649;48.798;9.798;2022-09-12T07:46:34;19.70;99.90
7216;DHT22;3649;48.798;9.798;2022-09-12T07:49:01;19.90;99.90
7216;DHT22;3649;48.798;9.798;2022-09-12T07:51:29;20.00;99.90
7216;DHT22;3649;48.798;9.798;2022-09-12T07:53:57;20.00;99.90
7216;DHT22;3649;48.798;9.798;2022-09-12T07:56:25;20.10;99.90
7216;DHT22;3649;48.798;9.798;2022-09-12T07:58:58;20.20;99.90
7216;DHT22;3649;48.798;9.798;2022-09-12T08:01:25;20.40;99.90
7216;DHT22;3649;48.798;9.798;2022-09-12T08:03:57;20.50;99.90
7216;DHT22;3649;48.798;9.798;2022-09-12T08:06:26;20.60;99.90
7216;DHT22;3649;48.798;9.798;2022-09-12T08:08:55;20.60;99.90
7216;DHT22;3649;48.798;9.798;2022-09-12T08:11:23;20.60;99.90
7216;DHT22;3649;48.798;9.798;2022-09-12T08:13:52;20.70;99.90
7216;DHT22;3649;48.798;9.798;2022-09-12T08:16:26;20.80;99.90
7216;DHT22;3649;48.798;9.798;2022-09-12T08:18:54;20.90;99.90
7216;DHT22;3649;48.798;9.798;2022-09-12T08:21:26;20.90;99.90
7216;DHT22;3649;48.798;9.798;2022-09-12T08:23:59;21.00;99.90
7216;DHT22;3649;48.798;9.798;2022-09-12T08:26:26;21.00;99.90
7216;DHT22;3649;48.798;9.798;2022-09-12T08:28:54;21.00;99.90
7216;DHT22;3649;48.798;9.798;2022-09-12T08:31:22;21.10;99.90
7216;DHT22;3649;48.798;9.798;2022-09-12T08:33:50;21.10;99.90
7216;DHT22;3649;48.798;9.798;2022-09-12T08:36:19;21.20;99.90
7216;DHT22;3649;48.798;9.798;2022-09-12T08:38:53;21.30;99.90
7216;DHT22;3649;48.798;9.798;2022-09-12T08:41:41;21.40;99.90
7216;DHT22;3649;48.798;9.798;2022-09-12T08:49:17;21.50;99.90
7216;DHT22;3649;48.798;9.798;2022-09-12T08:51:48;21.50;99.90
7216;DHT22;3649;48.798;9.798;2022-09-12T08:54:24;21.60;99.90
7216;DHT22;3649;48.798;9.798;2022-09-12T08:56:57;21.60;99.90
7216;DHT22;3649;48.798;9.798;2022-09-12T09:19:04;21.90;99.90
7216;DHT22;3649;48.798;9.798;2022-09-12T09:21:39;21.90;99.90
7216;DHT22;3649;48.798;9.798;2022-09-12T09:24:12;22.00;99.90
7216;DHT22;3649;48.798;9.798;2022-09-12T09:29:23;22.00;99.90
7216;DHT22;3649;48.798;9.798;2022-09-12T09:31:54;22.00;99.90
7216;DHT22;3649;48.798;9.798;2022-09-12T09:34:29;22.00;99.90
7216;DHT22;3649;48.798;9.798;2022-09-12T09:37:20;22.00;99.90
7216;DHT22;3649;48.798;9.798;2022-09-12T09:39:57;22.10;99.90
7216;DHT22;3649;48.798;9.798;2022-09-12T09:42:44;22.10;99.90
7216;DHT22;3649;48.798;9.798;2022-09-12T09:45:20;22.10;99.90
7216;DHT22;3649;48.798;9.798;2022-09-12T09:50:24;22.20;99.90
7216;DHT22;3649;48.798;9.798;2022-09-12T09:52:51;22.20;99.90
7216;DHT22;3649;48.798;9.798;2022-09-12T09:55:22;23.60;99.90
7216;DHT22;3649;48.798;9.798;2022-09-12T09:57:50;22.20;99.90
7216;DHT22;3649;48.798;9.798;2022-09-12T10:00:22;22.20;99.90
7216;DHT22;3649;48.798;9.798;2022-09-12T10:05:47;22.20;99.90
7216;DHT22;3649;48.798;9.798;2022-09-12T10:08:26;22.20;99.90
7216;DHT22;3649;48.798;9.798;2022-09-12T10:11:04;22.20;99.90
7216;DHT22;3649;48.798;9.798;2022-09-12T10:16:23;22.20;99.90
7216;DHT22;3649;48.798;9.798;2022-09-12T10:18:52;22.20;99.90
7216;DHT22;3649;48.798;9.798;2022-09-12T10:21:34;22.20;99.90
7216;DHT22;3649;48.798;9.798;2022-09-12T10:26:39;22.20;99.90
7216;DHT22;3649;48.798;9.798;2022-09-12T10:29:17;22.20;99.90
7216;DHT22;3649;48.798;9.798;2022-09-12T10:31:53;22.20;99.90
7216;DHT22;3649;48.798;9.798;2022-09-12T10:34:27;22.20;99.90
7216;DHT22;3649;48.798;9.798;2022-09-12T10:39:54;22.30;99.90
7216;DHT22;3649;48.798;9.798;2022-09-12T10:42:47;22.30;99.90
7216;DHT22;3649;48.798;9.798;2022-09-12T10:45:32;22.40;99.90
7216;DHT22;3649;48.798;9.798;2022-09-12T10:48:20;22.40;99.90
7216;DHT22;3649;48.798;9.798;2022-09-12T10:50:48;22.50;99.90
7216;DHT22;3649;48.798;9.798;2022-09-12T10:53:23;22.40;99.90
7216;DHT22;3649;48.798;9.798;2022-09-12T10:56:01;22.50;99.90
7216;DHT22;3649;48.798;9.798;2022-09-12T11:01:42;22.50;99.90
7216;DHT22;3649;48.798;9.798;2022-09-12T11:10:02;22.50;99.90
7216;DHT22;3649;48.798;9.798;2022-09-12T11:18:51;22.50;99.90
7216;DHT22;3649;48.798;9.798;2022-09-12T11:31:21;22.50;99.90
7216;DHT22;3649;48.798;9.798;2022-09-12T11:33:51;22.50;99.90
7216;DHT22;3649;48.798;9.798;2022-09-12T11:36:27;22.50;99.90
7216;DHT22;3649;48.798;9.798;2022-09-12T11:39:16;22.50;99.90
7216;DHT22;3649;48.798;9.798;2022-09-12T11:41:57;22.60;99.90
7216;DHT22;3649;48.798;9.798;2022-09-12T11:44:37;22.80;99.90
7216;DHT22;3649;48.798;9.798;2022-09-12T11:47:15;22.90;99.90
7216;DHT22;3649;48.798;9.798;2022-09-12T11:49:49;22.90;99.90
7216;DHT22;3649;48.798;9.798;2022-09-12T11:52:25;23.00;99.90
7216;DHT22;3649;48.798;9.798;2022-09-12T11:55:19;22.90;99.90
7216;DHT22;3649;48.798;9.798;2022-09-12T11:57:56;22.90;99.90
7216;DHT22;3649;48.798;9.798;2022-09-12T12:08:42;22.90;99.90
7216;DHT22;3649;48.798;9.798;2022-09-12T12:11:12;22.90;99.90
7216;DHT22;3649;48.798;9.798;2022-09-12T12:14:01;22.90;99.90
7216;DHT22;3649;48.798;9.798;2022-09-12T12:16:38;22.90;99.90
7216;DHT22;3649;48.798;9.798;2022-09-12T12:19:29;22.90;99.90
7216;DHT22;3649;48.798;9.798;2022-09-12T12:22:15;22.90;99.90
7216;DHT22;3649;48.798;9.798;2022-09-12T12:27:58;23.00;99.90
7216;DHT22;3649;48.798;9.798;2022-09-12T12:35:42;23.00;99.90
7216;DHT22;3649;48.798;9.798;2022-09-12T12:38:38;23.10;99.90
7216;DHT22;3649;48.798;9.798;2022-09-12T12:43:49;23.20;99.90
7216;DHT22;3649;48.798;9.798;2022-09-12T12:46:20;23.20;99.90
7216;DHT22;3649;48.798;9.798;2022-09-12T12:51:58;23.30;99.90
7216;DHT22;3649;48.798;9.798;2022-09-12T13:06:01;23.40;99.90
7216;DHT22;3649;48.798;9.798;2022-09-12T13:08:31;23.40;99.90
7216;DHT22;3649;48.798;9.798;2022-09-12T13:16:05;23.30;99.90
7216;DHT22;3649;48.798;9.798;2022-09-12T13:18:47;23.30;99.90
7216;DHT22;3649;48.798;9.798;2022-09-12T13:21:19;23.30;99.90
7216;DHT22;3649;48.798;9.798;2022-09-12T13:24:13;23.30;99.90
7216;DHT22;3649;48.798;9.798;2022-09-12T13:26:46;23.30;99.90
7216;DHT22;3649;48.798;9.798;2022-09-12T13:29:16;23.30;99.90
7216;DHT22;3649;48.798;9.798;2022-09-12T13:31:47;23.40;99.90
7216;DHT22;3649;48.798;9.798;2022-09-12T13:34:19;23.40;99.90
7216;DHT22;3649;48.798;9.798;2022-09-12T13:43:35;23.40;99.90
7216;DHT22;3649;48.798;9.798;2022-09-12T13:46:05;23.30;99.90
7216;DHT22;3649;48.798;9.798;2022-09-12T13:48:33;23.30;99.90
7216;DHT22;3649;48.798;9.798;2022-09-12T13:51:01;23.30;99.90
7216;DHT22;3649;48.798;9.798;2022-09-12T13:53:46;23.30;99.90
7216;DHT22;3649;48.798;9.798;2022-09-12T13:56:17;23.50;99.90
7216;DHT22;3649;48.798;9.798;2022-09-12T13:58:56;23.40;99.90
7216;DHT22;3649;48.798;9.798;2022-09-12T14:01:34;23.50;99.90
7216;DHT22;3649;48.798;9.798;2022-09-12T14:04:14;23.50;99.90
7216;DHT22;3649;48.798;9.798;2022-09-12T14:07:36;23.50;99.90
7216;DHT22;3649;48.798;9.798;2022-09-12T14:09:57;23.50;99.90
7216;DHT22;3649;48.798;9.798;2022-09-12T14:12:36;23.50;99.90
7216;DHT22;3649;48.798;9.798;2022-09-12T14:15:05;23.50;99.90
7216;DHT22;3649;48.798;9.798;2022-09-12T14:17:37;23.60;99.90
7216;DHT22;3649;48.798;9.798;2022-09-12T14:20:07;23.60;99.90
7216;DHT22;3649;48.798;9.798;2022-09-12T14:22:37;23.60;99.90
7216;DHT22;3649;48.798;9.798;2022-09-12T14:25:05;23.60;99.90
7216;DHT22;3649;48.798;9.798;2022-09-12T14:27:41;23.60;99.90
7216;DHT22;3649;48.798;9.798;2022-09-12T14:30:38;23.60;99.90
7216;DHT22;3649;48.798;9.798;2022-09-12T14:35:51;23.60;99.90
7216;DHT22;3649;48.798;9.798;2022-09-12T14:38:23;23.60;99.90
7216;DHT22;3649;48.798;9.798;2022-09-12T14:41:02;23.70;99.90
7216;DHT22;3649;48.798;9.798;2022-09-12T14:43:44;23.60;99.90
7216;DHT22;3649;48.798;9.798;2022-09-12T14:46:42;23.60;99.90
7216;DHT22;3649;48.798;9.798;2022-09-12T14:49:25;23.60;99.90
7216;DHT22;3649;48.798;9.798;2022-09-12T14:51:56;23.60;99.90
7216;DHT22;3649;48.798;9.798;2022-09-12T14:57:06;23.60;99.90
7216;DHT22;3649;48.798;9.798;2022-09-12T15:04:50;23.60;99.90
7216;DHT22;3649;48.798;9.798;2022-09-12T15:07:31;23.60;99.90
7216;DHT22;3649;48.798;9.798;2022-09-12T15:10:42;23.50;99.90
7216;DHT22;3649;48.798;9.798;2022-09-12T15:13:09;23.50;99.90
7216;DHT22;3649;48.798;9.798;2022-09-12T15:15:47;23.50;99.90
7216;DHT22;3649;48.798;9.798;2022-09-12T15:18:15;23.50;99.90
7216;DHT22;3649;48.798;9.798;2022-09-12T15:20:45;23.50;99.90
7216;DHT22;3649;48.798;9.798;2022-09-12T15:23:35;23.50;99.90
7216;DHT22;3649;48.798;9.798;2022-09-12T15:26:06;23.50;99.90
7216;DHT22;3649;48.798;9.798;2022-09-12T15:28:35;23.50;99.90
7216;DHT22;3649;48.798;9.798;2022-09-12T15:31:29;23.40;99.90
7216;DHT22;3649;48.798;9.798;2022-09-12T15:33:55;23.40;99.90
7216;DHT22;3649;48.798;9.798;2022-09-12T15:36:23;23.40;99.90
7216;DHT22;3649;48.798;9.798;2022-09-12T15:38:51;23.40;99.90
7216;DHT22;3649;48.798;9.798;2022-09-12T15:41:20;23.40;99.90
7216;DHT22;3649;48.798;9.798;2022-09-12T15:43:47;23.40;99.90
7216;DHT22;3649;48.798;9.798;2022-09-12T15:46:16;23.40;99.90
7216;DHT22;3649;48.798;9.798;2022-09-12T15:48:43;23.40;99.90
7216;DHT22;3649;48.798;9.798;2022-09-12T15:51:15;23.40;99.90
7216;DHT22;3649;48.798;9.798;2022-09-12T15:53:43;23.40;99.90
7216;DHT22;3649;48.798;9.798;2022-09-12T15:56:11;23.40;99.90
7216;DHT22;3649;48.798;9.798;2022-09-12T15:58:38;23.30;99.90
7216;DHT22;3649;48.798;9.798;2022-09-12T16:01:23;23.30;99.90
7216;DHT22;3649;48.798;9.798;2022-09-12T16:03:50;23.30;99.90
7216;DHT22;3649;48.798;9.798;2022-09-12T16:06:16;23.30;99.90
7216;DHT22;3649;48.798;9.798;2022-09-12T16:08:43;23.30;99.90
7216;DHT22;3649;48.798;9.798;2022-09-12T16:11:15;23.30;99.90
7216;DHT22;3649;48.798;9.798;2022-09-12T16:13:44;23.30;99.90
7216;DHT22;3649;48.798;9.798;2022-09-12T16:16:11;23.20;99.90
7216;DHT22;3649;48.798;9.798;2022-09-12T16:18:39;23.20;99.90
7216;DHT22;3649;48.798;9.798;2022-09-12T16:21:06;23.20;99.90
7216;DHT22;3649;48.798;9.798;2022-09-12T16:23:42;23.20;99.90
7216;DHT22;3649;48.798;9.798;2022-09-12T16:26:09;23.20;99.90
7216;DHT22;3649;48.798;9.798;2022-09-12T16:28:36;23.20;99.90
7216;DHT22;3649;48.798;9.798;2022-09-12T16:31:05;23.20;99.90
7216;DHT22;3649;48.798;9.798;2022-09-12T16:33:32;23.20;99.90
7216;DHT22;3649;48.798;9.798;2022-09-12T16:36:00;23.20;99.90
7216;DHT22;3649;48.798;9.798;2022-09-12T16:38:29;23.30;99.90
7216;DHT22;3649;48.798;9.798;2022-09-12T16:41:04;23.30;99.90
7216;DHT22;3649;48.798;9.798;2022-09-12T16:43:32;23.30;99.90
7216;DHT22;3649;48.798;9.798;2022-09-12T16:46:01;23.30;99.90
7216;DHT22;3649;48.798;9.798;2022-09-12T16:48:29;23.30;99.90
7216;DHT22;3649;48.798;9.798;2022-09-12T16:51:00;23.30;99.90
7216;DHT22;3649;48.798;9.798;2022-09-12T16:53:33;23.30;99.90
7216;DHT22;3649;48.798;9.798;2022-09-12T16:56:00;23.30;99.90
7216;DHT22;3649;48.798;9.798;2022-09-12T16:58:34;23.20;99.90
7216;DHT22;3649;48.798;9.798;2022-09-12T17:01:12;23.20;99.90
7216;DHT22;3649;48.798;9.798;2022-09-12T17:03:40;23.20;99.90
7216;DHT22;3649;48.798;9.798;2022-09-12T17:06:10;23.20;99.90
7216;DHT22;3649;48.798;9.798;2022-09-12T17:08:40;23.10;99.90
7216;DHT22;3649;48.798;9.798;2022-09-12T17:11:29;23.10;99.90
7216;DHT22;3649;48.798;9.798;2022-09-12T17:13:58;23.10;99.90
7216;DHT22;3649;48.798;9.798;2022-09-12T17:16:35;23.00;99.90
7216;DHT22;3649;48.798;9.798;2022-09-12T17:19:03;23.00;99.90
7216;DHT22;3649;48.798;9.798;2022-09-12T17:21:30;23.00;99.90
7216;DHT22;3649;48.798;9.798;2022-09-12T17:23:57;23.00;99.90
7216;DHT22;3649;48.798;9.798;2022-09-12T17:26:25;22.90;99.90
7216;DHT22;3649;48.798;9.798;2022-09-12T17:28:52;22.80;99.90
7216;DHT22;3649;48.798;9.798;2022-09-12T17:31:19;22.80;99.90
7216;DHT22;3649;48.798;9.798;2022-09-12T17:33:46;22.80;99.90
7216;DHT22;3649;48.798;9.798;2022-09-12T17:36:15;22.80;99.90
7216;DHT22;3649;48.798;9.798;2022-09-12T17:38:44;22.80;99.90
7216;DHT22;3649;48.798;9.798;2022-09-12T17:41:19;22.70;99.90
7216;DHT22;3649;48.798;9.798;2022-09-12T17:43:49;22.70;99.90
7216;DHT22;3649;48.798;9.798;2022-09-12T17:46:17;22.60;99.90
7216;DHT22;3649;48.798;9.798;2022-09-12T17:48:44;22.60;99.90
7216;DHT22;3649;48.798;9.798;2022-09-12T17:51:16;22.60;99.90
7216;DHT22;3649;48.798;9.798;2022-09-12T17:53:43;22.60;99.90
7216;DHT22;3649;48.798;9.798;2022-09-12T17:56:10;22.50;99.90
7216;DHT22;3649;48.798;9.798;2022-09-12T17:58:37;22.50;99.90
7216;DHT22;3649;48.798;9.798;2022-09-12T18:01:12;22.50;99.90
7216;DHT22;3649;48.798;9.798;2022-09-12T18:03:59;22.50;99.90
7216;DHT22;3649;48.798;9.798;2022-09-12T18:06:29;22.40;99.90
7216;DHT22;3649;48.798;9.798;2022-09-12T18:09:00;22.40;99.90
7216;DHT22;3649;48.798;9.798;2022-09-12T18:11:28;22.40;99.90
7216;DHT22;3649;48.798;9.798;2022-09-12T18:13:57;22.30;99.90
7216;DHT22;3649;48.798;9.798;2022-09-12T18:16:25;22.30;99.90
7216;DHT22;3649;48.798;9.798;2022-09-12T18:18:52;22.20;99.90
7216;DHT22;3649;48.798;9.798;2022-09-12T18:21:19;22.20;99.90
7216;DHT22;3649;48.798;9.798;2022-09-12T18:23:46;22.10;99.90
7216;DHT22;3649;48.798;9.798;2022-09-12T18:26:13;22.10;99.90
7216;DHT22;3649;48.798;9.798;2022-09-12T18:28:41;22.00;99.90
7216;DHT22;3649;48.798;9.798;2022-09-12T18:31:15;22.00;99.90
7216;DHT22;3649;48.798;9.798;2022-09-12T18:33:42;22.00;99.90
7216;DHT22;3649;48.798;9.798;2022-09-12T18:36:11;21.90;99.90
7216;DHT22;3649;48.798;9.798;2022-09-12T18:38:40;21.80;99.90
7216;DHT22;3649;48.798;9.798;2022-09-12T18:41:09;21.80;99.90
7216;DHT22;3649;48.798;9.798;2022-09-12T18:43:36;21.70;99.90
7216;DHT22;3649;48.798;9.798;2022-09-12T18:46:14;21.70;99.90
7216;DHT22;3649;48.798;9.798;2022-09-12T18:48:42;21.70;99.90
7216;DHT22;3649;48.798;9.798;2022-09-12T18:51:19;21.60;99.90
7216;DHT22;3649;48.798;9.798;2022-09-12T18:53:50;21.60;99.90
7216;DHT22;3649;48.798;9.798;2022-09-12T18:56:21;21.50;99.90
7216;DHT22;3649;48.798;9.798;2022-09-12T18:58:53;21.50;99.90
7216;DHT22;3649;48.798;9.798;2022-09-12T19:01:29;21.40;99.90
7216;DHT22;3649;48.798;9.798;2022-09-12T19:03:56;21.40;99.90
7216;DHT22;3649;48.798;9.798;2022-09-12T19:06:25;21.30;99.90
7216;DHT22;3649;48.798;9.798;2022-09-12T19:08:54;21.40;99.90
7216;DHT22;3649;48.798;9.798;2022-09-12T19:11:23;21.30;99.90
7216;DHT22;3649;48.798;9.798;2022-09-12T19:13:51;21.30;99.90
7216;DHT22;3649;48.798;9.798;2022-09-12T19:16:24;21.20;99.90